Great Sankey, United Kingdom
Current Conditions -  °F | °C
As of 6:20 AM on Thursday 27 Nov 2014 (Local Time) from EGGP Reporting Station
Broken Clouds Broken Clouds  
Wind Chill: 45°   Ceiling: 3400
Heat Index: 45°   Visibility: 6mi
Dew Point: 45°   Wind: 3mph
Humidity: 100%   Direction: 100°E
Pressure: 29.62"   Gusts: NA
Location:  53.39°N, 2.64°W
Report Text: EGGP 270620Z 10003KT 9000 SCT016 BKN034 07/07 Q1003
Loading
Personal Weather Stations






























Interactive Weather Map New forecast layout! Learn more

10-Day Weather Forecast

Advertisements
Track Severe Weather on mobile